Time;durP1;ratioP1;P1;durP2;ratioP2;P2;SDS_P1;SDS_P2;PMS_P1;PMS_P2;Temp;Humidity;BMP_temperature;BMP_pressure;BME280_temperature;BME280_humidity;BME280_pressure;Samples;Min_cycle;Max_cycle;Signal;HPM_P1;HPM_P2
2023/06/24 00:02:35;;;;;;;12.02;8.30;;;;;;;16.54;100.00;102419.00;5055009;28;20043;-73
2023/06/24 00:05:21;;;;;;;11.75;8.10;;;;;;;16.54;100.00;102423.47;5071586;28;20044;-74
2023/06/24 00:08:08;;;;;;;12.80;8.70;;;;;;;16.50;100.00;102429.91;5071559;28;20980;-73
2023/06/24 00:10:53;;;;;;;14.43;8.35;;;;;;;16.50;100.00;102432.59;5069825;28;20036;-73
2023/06/24 00:13:43;;;;;;;12.98;8.18;;;;;;;16.49;100.00;102437.06;5071166;28;20130;-74
2023/06/24 00:16:28;;;;;;;13.45;8.20;;;;;;;16.49;100.00;102436.16;5055204;28;20092;-73
2023/06/24 00:19:14;;;;;;;10.48;7.82;;;;;;;16.48;100.00;102439.78;5069686;28;20487;-74
2023/06/24 00:22:03;;;;;;;13.05;7.50;;;;;;;16.46;100.00;102437.22;5069780;28;20685;-74
2023/06/24 00:24:50;;;;;;;14.98;8.32;;;;;;;16.46;100.00;102441.66;5070882;28;20414;-74
2023/06/24 00:27:36;;;;;;;11.77;8.00;;;;;;;16.41;100.00;102434.72;5056879;28;20054;-74
2023/06/24 00:30:22;;;;;;;13.82;8.80;;;;;;;16.35;100.00;102437.66;5055955;28;20237;-73
2023/06/24 00:33:11;;;;;;;12.60;8.50;;;;;;;16.26;100.00;102440.75;5052758;28;20044;-73
2023/06/24 00:35:57;;;;;;;16.70;8.48;;;;;;;16.16;100.00;102437.63;5070416;28;20048;-73
2023/06/24 00:38:43;;;;;;;15.15;8.02;;;;;;;16.08;100.00;102432.59;5025677;28;21915;-74
2023/06/24 00:41:30;;;;;;;14.57;9.25;;;;;;;16.02;100.00;102432.91;5054800;28;20096;-74
2023/06/24 00:44:16;;;;;;;15.38;9.27;;;;;;;16.01;100.00;102436.47;5070167;28;20063;-74
2023/06/24 00:47:03;;;;;;;14.38;9.30;;;;;;;16.00;100.00;102440.97;5070105;28;20452;-74
2023/06/24 00:49:49;;;;;;;13.43;8.63;;;;;;;16.02;100.00;102439.09;5070131;28;20510;-73
2023/06/24 00:52:37;;;;;;;14.18;8.88;;;;;;;16.04;100.00;102435.47;5054730;28;20040;-74
2023/06/24 00:55:23;;;;;;;12.65;8.40;;;;;;;16.05;100.00;102437.22;5069973;28;20043;-73
2023/06/24 00:58:09;;;;;;;14.65;8.63;;;;;;;16.10;100.00;102445.91;5067973;28;20491;-73
2023/06/24 01:00:56;;;;;;;14.40;9.30;;;;;;;16.12;100.00;102439.56;5071724;28;20147;-74
2023/06/24 01:03:42;;;;;;;13.90;9.25;;;;;;;16.13;100.00;102441.28;5070455;28;20036;-74
2023/06/24 01:06:29;;;;;;;13.90;8.77;;;;;;;16.13;100.00;102443.97;5071113;28;20039;-74
2023/06/24 01:09:15;;;;;;;12.48;8.02;;;;;;;16.12;100.00;102436.88;5070847;28;20395;-74
2023/06/24 01:12:01;;;;;;;11.40;7.68;;;;;;;16.11;100.00;102437.81;5070173;28;20410;-74
2023/06/24 01:14:46;;;;;;;11.98;7.88;;;;;;;16.08;100.00;102429.94;5069102;28;20047;-74
2023/06/24 01:17:51;;;;;;;14.15;8.63;;;;;;;16.05;100.00;102432.75;5070128;28;20066;-74
2023/06/24 01:20:47;;;;;;;14.50;8.75;;;;;;;16.02;100.00;102427.56;5070506;28;20047;-74
2023/06/24 01:23:48;;;;;;;11.68;8.18;;;;;;;15.95;100.00;102426.94;5054113;28;20027;-73
2023/06/24 01:27:08;;;;;;;14.07;8.70;;;;;;;15.92;100.00;102427.09;5051994;28;20040;-73
2023/06/24 01:30:31;;;;;;;13.45;8.10;;;;;;;15.90;100.00;102418.22;5056695;28;20165;-74
2023/06/24 01:33:25;;;;;;;14.30;9.18;;;;;;;15.85;100.00;102423.75;5073366;28;20054;-72
2023/06/24 01:36:12;;;;;;;13.73;8.38;;;;;;;15.80;100.00;102415.06;5053132;28;20983;-73
2023/06/24 01:39:02;;;;;;;13.93;8.55;;;;;;;15.79;100.00;102410.66;5045069;28;21251;-74
2023/06/24 01:41:57;;;;;;;13.13;8.60;;;;;;;15.79;100.00;102401.81;5073824;28;20085;-73
2023/06/24 01:44:45;;;;;;;12.50;8.38;;;;;;;15.75;100.00;102406.41;5058280;28;20087;-73
2023/06/24 01:47:31;;;;;;;14.88;8.95;;;;;;;15.71;100.00;102407.47;5058824;28;20051;-73
2023/06/24 01:50:20;;;;;;;13.98;8.65;;;;;;;15.65;100.00;102399.72;5073810;28;20514;-72
2023/06/24 01:53:07;;;;;;;12.95;8.10;;;;;;;15.55;100.00;102405.44;5073302;28;20081;-73
2023/06/24 01:55:55;;;;;;;15.13;8.77;;;;;;;15.43;100.00;102398.78;5044702;28;20040;-74
2023/06/24 01:58:42;;;;;;;12.70;8.27;;;;;;;15.34;100.00;102393.84;5056891;28;20071;-73
2023/06/24 02:01:29;;;;;;;13.98;8.90;;;;;;;15.29;100.00;102395.84;5045917;28;20042;-73
2023/06/24 02:04:16;;;;;;;16.17;8.87;;;;;;;15.26;100.00;102406.66;5041983;28;20115;-73
2023/06/24 02:07:03;;;;;;;16.48;8.95;;;;;;;15.21;100.00;102394.34;5057838;28;20248;-73
2023/06/24 02:09:49;;;;;;;13.98;8.77;;;;;;;15.21;100.00;102398.84;5057247;28;20669;-74
2023/06/24 02:12:36;;;;;;;14.43;9.07;;;;;;;15.19;100.00;102396.22;5072249;28;20031;-74
2023/06/24 02:15:22;;;;;;;14.05;8.40;;;;;;;15.16;100.00;102392.81;5072833;28;20040;-74
2023/06/24 02:18:09;;;;;;;14.95;8.20;;;;;;;15.10;100.00;102385.03;5074520;28;20032;-74
2023/06/24 02:20:56;;;;;;;16.27;9.52;;;;;;;15.04;100.00;102387.03;5058012;28;20498;-74
2023/06/24 02:23:42;;;;;;;14.55;8.90;;;;;;;15.01;100.00;102387.16;5056561;28;20040;-74
2023/06/24 02:26:28;;;;;;;14.88;8.60;;;;;;;14.97;100.00;102380.19;5057950;28;20510;-74
2023/06/24 02:29:14;;;;;;;15.18;8.90;;;;;;;14.96;100.00;102375.81;5071973;28;20043;-73
2023/06/24 02:32:00;;;;;;;14.23;9.60;;;;;;;14.96;100.00;102374.91;5058193;28;20055;-73
2023/06/24 02:34:46;;;;;;;16.50;9.50;;;;;;;14.95;100.00;102379.41;5057885;28;20056;-73
2023/06/24 02:37:31;;;;;;;13.45;9.05;;;;;;;14.95;100.00;102376.72;5071943;28;20085;-74
2023/06/24 02:40:18;;;;;;;17.30;9.27;;;;;;;14.98;100.00;102376.59;5057578;28;20483;-73
2023/06/24 02:43:04;;;;;;;14.40;9.25;;;;;;;14.99;100.00;102373.00;5073302;28;20044;-74
2023/06/24 02:45:50;;;;;;;17.15;9.30;;;;;;;14.99;100.00;102367.66;5055771;28;20125;-74
2023/06/24 02:48:37;;;;;;;16.60;10.10;;;;;;;15.00;100.00;102369.44;5073829;28;20098;-74
2023/06/24 02:51:25;;;;;;;17.08;9.60;;;;;;;15.01;100.00;102362.28;5057896;28;20997;-73
2023/06/24 02:54:12;;;;;;;15.80;9.45;;;;;;;14.99;100.00;102357.00;5053374;28;20660;-73
2023/06/24 02:56:58;;;;;;;14.60;9.77;;;;;;;14.99;100.00;102358.81;5073141;28;20043;-73
2023/06/24 02:59:44;;;;;;;15.80;10.00;;;;;;;14.99;100.00;102357.00;5056714;28;20034;-73
2023/06/24 03:02:30;;;;;;;16.30;9.80;;;;;;;14.96;100.00;102362.47;5071793;28;20047;-72
2023/06/24 03:05:16;;;;;;;19.33;9.82;;;;;;;14.94;100.00;102351.84;5043721;28;20955;-73
2023/06/24 03:08:05;;;;;;;17.42;9.40;;;;;;;14.94;100.00;102356.34;5056013;28;20040;-73
2023/06/24 03:10:54;;;;;;;14.23;9.18;;;;;;;14.95;100.00;102360.72;5072172;28;20059;-74
2023/06/24 03:13:41;;;;;;;15.35;9.82;;;;;;;14.94;100.00;102359.00;5057065;28;20043;-73
2023/06/24 03:16:29;;;;;;;15.50;9.38;;;;;;;14.95;100.00;102355.41;5057597;28;20067;-74
2023/06/24 03:19:15;;;;;;;15.40;9.10;;;;;;;14.98;100.00;102362.41;5073138;28;20031;-74
2023/06/24 03:22:02;;;;;;;13.90;8.77;;;;;;;14.97;100.00;102361.53;5071582;28;20156;-74
2023/06/24 03:24:48;;;;;;;16.38;9.40;;;;;;;14.96;100.00;102362.47;5071573;28;20332;-74
2023/06/24 03:27:37;;;;;;;14.55;9.63;;;;;;;14.94;100.00;102369.66;5056036;28;20043;-74
2023/06/24 03:30:23;;;;;;;14.73;8.93;;;;;;;14.93;100.00;102373.28;5070297;28;20113;-73
2023/06/24 03:33:09;;;;;;;14.68;9.23;;;;;;;14.91;100.00;102370.66;5070958;28;20060;-74
2023/06/24 03:35:55;;;;;;;14.77;8.13;;;;;;;14.91;100.00;102365.31;5070687;28;20050;-73
2023/06/24 03:38:43;;;;;;;13.57;8.88;;;;;;;14.92;100.00;102374.16;5070528;28;20027;-74
2023/06/24 03:41:29;;;;;;;14.77;8.93;;;;;;;14.91;100.00;102365.31;5072620;28;20743;-72
2023/06/24 03:44:15;;;;;;;17.27;9.02;;;;;;;14.90;100.00;102368.03;5072231;28;20112;-72
2023/06/24 03:47:01;;;;;;;15.35;8.77;;;;;;;14.90;100.00;102365.38;5070576;28;20036;-73
2023/06/24 03:49:47;;;;;;;15.52;8.93;;;;;;;14.90;100.00;102366.25;5070986;28;20040;-73
2023/06/24 03:52:33;;;;;;;13.63;8.52;;;;;;;14.92;100.00;102355.50;5055787;28;20043;-73
2023/06/24 03:55:18;;;;;;;15.35;9.02;;;;;;;14.96;100.00;102361.59;5070298;28;20068;-73
2023/06/24 03:58:04;;;;;;;14.63;8.65;;;;;;;14.99;100.00;102357.00;5070195;28;20040;-73
2023/06/24 04:00:50;;;;;;;15.57;8.93;;;;;;;15.02;100.00;102364.00;5070295;28;20082;-73
2023/06/24 04:03:36;;;;;;;15.13;9.07;;;;;;;15.02;100.00;102364.88;5071906;28;20043;-72
2023/06/24 04:06:22;;;;;;;14.07;8.68;;;;;;;15.05;100.00;102372.75;5035968;28;20036;-73
2023/06/24 04:09:09;;;;;;;15.18;9.13;;;;;;;15.06;100.00;102371.84;5070499;28;20032;-74
2023/06/24 04:11:55;;;;;;;13.15;8.60;;;;;;;15.11;100.00;102370.78;5071323;28;20059;-73
2023/06/24 04:14:41;;;;;;;14.82;8.52;;;;;;;15.14;100.00;102381.34;5071033;28;20044;-74
2023/06/24 04:17:26;;;;;;;16.60;9.35;;;;;;;15.17;100.00;102374.09;5054865;28;20649;-74
2023/06/24 04:20:12;;;;;;;12.82;8.57;;;;;;;15.21;100.00;102381.00;5056645;28;20048;-74
2023/06/24 04:22:59;;;;;;;16.30;9.30;;;;;;;15.25;100.00;102381.75;5055137;28;21152;-74
2023/06/24 04:25:44;;;;;;;14.75;9.40;;;;;;;15.28;100.00;102386.09;5069856;28;20039;-74
2023/06/24 04:28:30;;;;;;;14.98;9.70;;;;;;;15.33;100.00;102385.00;5070716;28;20495;-74
2023/06/24 04:31:16;;;;;;;17.58;9.40;;;;;;;15.36;100.00;102391.97;5042000;28;20040;-74
2023/06/24 04:34:05;;;;;;;15.15;9.07;;;;;;;15.38;100.00;102395.47;5069076;28;20055;-74
2023/06/24 04:36:51;;;;;;;14.60;9.48;;;;;;;15.43;100.00;102393.47;5070776;28;20189;-73
2023/06/24 04:39:36;;;;;;;13.65;8.93;;;;;;;15.48;100.00;102388.81;5071085;28;20044;-73
2023/06/24 04:42:23;;;;;;;15.65;9.57;;;;;;;15.52;100.00;102394.03;5070105;28;20119;-74
2023/06/24 04:45:09;;;;;;;14.70;9.48;;;;;;;15.53;100.00;102399.28;5071487;28;20435;-74
2023/06/24 04:47:55;;;;;;;18.17;9.13;;;;;;;15.60;100.00;102403.44;5070649;28;20051;-74
2023/06/24 04:50:41;;;;;;;16.17;9.35;;;;;;;15.65;100.00;102387.25;5071266;28;20059;-74
2023/06/24 04:53:30;;;;;;;14.95;9.57;;;;;;;15.72;100.00;102377.16;5068935;28;20262;-74
2023/06/24 04:56:15;;;;;;;19.05;9.85;;;;;;;15.80;100.00;102385.69;5041089;28;20036;-74
2023/06/24 04:59:04;;;;;;;15.77;9.60;;;;;;;15.86;100.00;102385.44;5074334;28;20044;-74
2023/06/24 05:01:52;;;;;;;15.15;9.52;;;;;;;15.93;100.00;102374.53;5073676;28;20483;-74
2023/06/24 05:04:39;;;;;;;16.23;10.00;;;;;;;16.02;100.00;102374.13;5058971;28;20032;-74
2023/06/24 05:07:26;;;;;;;15.82;9.73;;;;;;;16.12;100.00;102375.44;5073440;28;20556;-74
2023/06/24 05:10:12;;;;;;;15.38;9.55;;;;;;;16.22;100.00;102383.03;5052672;28;20123;-73
2023/06/24 05:12:58;;;;;;;13.68;9.27;;;;;;;16.32;100.00;102379.03;5073331;28;20046;-74
2023/06/24 05:15:44;;;;;;;15.13;10.02;;;;;;;16.44;100.00;102380.25;5073382;28;20059;-74
2023/06/24 05:18:30;;;;;;;16.48;10.57;;;;;;;16.57;100.00;102375.22;5059918;28;20028;-73
2023/06/24 05:21:16;;;;;;;15.00;9.95;;;;;;;16.67;100.00;102373.84;5055553;28;20317;-72
2023/06/24 05:24:02;;;;;;;15.75;9.57;;;;;;;16.82;100.00;102379.41;5074988;28;20097;-73
2023/06/24 05:26:50;;;;;;;15.57;9.82;;;;;;;16.97;100.00;102370.66;5073347;28;20050;-73
2023/06/24 05:29:38;;;;;;;15.68;9.98;;;;;;;17.15;100.00;102383.25;5058439;28;20059;-75
2023/06/24 05:32:24;;;;;;;17.20;9.68;;;;;;;17.36;100.00;102383.97;5074290;28;20039;-72
2023/06/24 05:35:10;;;;;;;14.13;9.18;;;;;;;17.58;100.00;102381.09;5074021;28;20110;-74
2023/06/24 05:37:55;;;;;;;15.27;9.63;;;;;;;17.80;100.00;102382.66;5058811;28;20044;-74
2023/06/24 05:40:41;;;;;;;15.65;9.60;;;;;;;18.07;100.00;102384.00;5072973;28;21205;-74
2023/06/24 05:43:29;;;;;;;12.43;9.10;;;;;;;18.40;100.00;102386.69;5073322;28;20036;-75
2023/06/24 05:46:15;;;;;;;15.25;9.27;;;;;;;18.68;100.00;102384.31;5073313;28;20044;-73
2023/06/24 05:49:01;;;;;;;13.50;8.77;;;;;;;18.97;100.00;102379.97;5073093;28;20470;-73
2023/06/24 05:51:48;;;;;;;15.00;9.43;;;;;;;19.27;100.00;102391.72;5073517;28;20077;-74
2023/06/24 05:54:34;;;;;;;14.30;8.98;;;;;;;19.52;100.00;102390.31;5045029;28;20048;-74
2023/06/24 05:57:20;;;;;;;13.85;8.98;;;;;;;19.67;100.00;102380.47;5057940;28;20656;-74
2023/06/24 06:00:09;;;;;;;12.80;8.32;;;;;;;19.81;100.00;102391.25;5072364;28;20032;-74
2023/06/24 06:02:55;;;;;;;11.70;8.65;;;;;;;19.92;100.00;102393.28;5072796;28;20502;-74
2023/06/24 06:05:41;;;;;;;13.35;9.02;;;;;;;20.02;100.00;102393.63;5073285;28;20577;-74
2023/06/24 06:08:26;;;;;;;13.27;9.23;;;;;;;20.08;100.00;102387.88;5071785;28;20774;-74
2023/06/24 06:11:12;;;;;;;12.43;8.43;;;;;;;20.16;100.00;102383.84;5074093;28;20028;-74
2023/06/24 06:13:58;;;;;;;12.45;8.68;;;;;;;20.22;100.00;102383.47;5070944;28;20501;-74
2023/06/24 06:16:45;;;;;;;12.32;8.63;;;;;;;20.28;100.00;102382.19;5058669;28;20068;-74
2023/06/24 06:19:30;;;;;;;11.50;8.73;;;;;;;20.32;100.00;102375.69;5072441;28;20036;-74
2023/06/24 06:22:19;;;;;;;11.88;8.57;;;;;;;20.40;100.00;102376.06;5070575;28;20479;-74
2023/06/24 06:25:06;;;;;;;14.68;9.13;;;;;;;20.51;100.00;102369.97;5056866;28;20513;-73
2023/06/24 06:27:52;;;;;;;12.02;8.38;;;;;;;20.61;100.00;102376.47;5058048;28;20059;-74
2023/06/24 06:30:38;;;;;;;12.18;7.93;;;;;;;20.70;100.00;102376.88;5072515;28;20093;-74
2023/06/24 06:33:24;;;;;;;11.63;8.07;;;;;;;20.79;100.00;102383.47;5072206;28;20416;-74
2023/06/24 06:36:10;;;;;;;12.23;8.35;;;;;;;20.90;100.00;102386.38;5072134;28;20079;-72
2023/06/24 06:38:56;;;;;;;14.32;8.82;;;;;;;20.99;100.00;102387.59;5072018;28;20652;-74
2023/06/24 06:41:41;;;;;;;14.57;8.93;;;;;;;21.13;100.00;102384.00;5071843;28;20473;-74
2023/06/24 06:44:30;;;;;;;12.23;8.00;;;;;;;21.21;100.00;102378.09;5071937;28;20615;-74
2023/06/24 06:47:16;;;;;;;14.27;8.65;;;;;;;21.32;100.00;102383.63;5072127;28;20040;-74
2023/06/24 06:50:02;;;;;;;15.13;8.52;;;;;;;21.39;100.00;102373.28;5072948;28;20101;-74
2023/06/24 06:52:48;;;;;;;13.45;7.70;;;;;;;21.49;100.00;102377.09;5073403;28;20036;-74
2023/06/24 06:55:34;;;;;;;12.23;7.68;;;;;;;21.57;100.00;102382.81;5053868;28;20109;-74
2023/06/24 06:58:20;;;;;;;11.05;7.50;;;;;;;21.62;100.00;102377.13;5071907;28;20515;-74
2023/06/24 07:01:05;;;;;;;9.00;6.68;;;;;;;21.69;100.00;102370.34;5070670;28;20036;-73
2023/06/24 07:03:51;;;;;;;12.23;7.20;;;;;;;21.78;100.00;102368.88;5071971;28;20043;-74
2023/06/24 07:06:38;;;;;;;13.18;6.90;;;;;;;21.84;100.00;102379.22;5074839;28;20047;-74
2023/06/24 07:09:24;;;;;;;11.02;7.47;;;;;;;21.89;100.00;102370.81;5070054;28;20140;-74
2023/06/24 07:12:10;;;;;;;10.73;6.93;;;;;;;21.95;100.00;102375.78;5071777;28;20036;-74
2023/06/24 07:14:56;;;;;;;10.25;7.07;;;;;;;22.02;100.00;102375.34;5071698;28;20192;-74
2023/06/24 07:17:41;;;;;;;12.05;7.68;;;;;;;22.06;100.00;102371.47;5070952;28;20450;-75
2023/06/24 07:20:30;;;;;;;10.40;6.95;;;;;;;22.11;100.00;102375.56;5072236;28;20129;-73
2023/06/24 07:23:16;;;;;;;11.15;6.97;;;;;;;22.17;100.00;102376.94;5056822;28;20065;-74
2023/06/24 07:26:01;;;;;;;10.32;7.32;;;;;;;22.26;100.00;102383.53;5070886;28;20422;-74
2023/06/24 07:28:47;;;;;;;11.40;7.78;;;;;;;22.34;100.00;102378.44;5073184;28;20044;-74
2023/06/24 07:31:34;;;;;;;10.15;6.75;;;;;;;22.39;100.00;102375.44;5070740;28;20205;-74
2023/06/24 07:34:20;;;;;;;9.52;7.15;;;;;;;22.44;100.00;102375.09;5072166;28;20199;-74
2023/06/24 07:37:06;;;;;;;9.18;6.28;;;;;;;22.48;100.00;102379.28;5070813;28;20036;-72
2023/06/24 07:39:51;;;;;;;11.43;6.80;;;;;;;22.53;100.00;102385.25;5070869;28;20040;-73
2023/06/24 07:42:37;;;;;;;8.98;6.65;;;;;;;22.57;100.00;102380.47;5039862;28;20734;-74
2023/06/24 07:45:25;;;;;;;8.15;5.68;;;;;;;22.62;100.00;102381.03;5070281;28;20393;-73
2023/06/24 07:48:10;;;;;;;6.10;4.40;;;;;;;22.69;100.00;102386.81;5057499;28;20175;-74
2023/06/24 07:50:58;;;;;;;6.82;3.78;;;;;;;22.74;100.00;102381.94;5071955;28;20430;-74
2023/06/24 07:53:47;;;;;;;5.50;3.90;;;;;;;22.82;100.00;102382.25;5071731;28;20052;-74
2023/06/24 07:56:32;;;;;;;6.50;4.05;;;;;;;22.96;100.00;102380.34;5070411;28;20478;-74
2023/06/24 07:59:21;;;;;;;9.13;5.03;;;;;;;23.08;100.00;102384.00;5070381;28;20414;-74
2023/06/24 08:02:07;;;;;;;6.07;4.20;;;;;;;23.19;100.00;102379.50;5056278;28;21934;-74
2023/06/24 08:04:54;;;;;;;5.72;3.80;;;;;;;23.31;100.00;102379.59;5070058;28;20096;-74
2023/06/24 08:07:40;;;;;;;6.32;4.10;;;;;;;23.44;100.00;102387.63;5070358;28;20794;-74
2023/06/24 08:10:26;;;;;;;9.02;4.32;;;;;;;23.61;100.00;102380.91;5071442;28;20036;-75
2023/06/24 08:13:12;;;;;;;8.65;4.10;;;;;;;23.81;100.00;102378.50;5070476;28;20032;-75
2023/06/24 08:16:00;;;;;;;6.43;4.63;;;;;;;24.00;99.80;102376.06;5068368;28;20541;-75
2023/06/24 08:18:46;;;;;;;5.15;4.15;;;;;;;24.16;98.19;102379.41;5070433;28;20028;-74
2023/06/24 08:21:34;;;;;;;5.85;3.88;;;;;;;24.30;97.07;102378.31;5070733;28;20040;-75
2023/06/24 08:24:20;;;;;;;6.93;4.32;;;;;;;24.48;95.44;102379.53;5070409;28;20118;-74
2023/06/24 08:27:05;;;;;;;5.57;3.88;;;;;;;24.62;94.61;102386.53;5068025;28;20071;-74
2023/06/24 08:29:51;;;;;;;6.65;4.05;;;;;;;24.75;93.66;102380.09;5071465;28;20044;-75
2023/06/24 08:32:37;;;;;;;5.10;3.42;;;;;;;24.93;93.10;102385.88;5053845;28;20078;-74
2023/06/24 08:35:23;;;;;;;5.20;4.07;;;;;;;25.15;90.36;102375.94;5048614;28;20036;-74
2023/06/24 08:38:09;;;;;;;7.63;4.20;;;;;;;25.19;89.27;102383.72;5050156;28;20037;-74
2023/06/24 08:40:55;;;;;;;5.47;4.05;;;;;;;25.37;88.86;102380.41;5050678;28;20040;-74
2023/06/24 08:43:42;;;;;;;8.05;3.78;;;;;;;25.69;88.40;102378.66;5050351;28;20036;-74
2023/06/24 08:46:30;;;;;;;6.93;4.00;;;;;;;25.95;86.75;102375.53;5050337;28;20035;-74
2023/06/24 08:49:22;;;;;;;7.40;3.80;;;;;;;26.05;84.31;102376.44;5049419;28;20406;-74
2023/06/24 08:52:16;;;;;;;6.68;4.38;;;;;;;26.22;82.66;102380.41;5049437;28;20032;-74
2023/06/24 08:55:02;;;;;;;5.82;3.80;;;;;;;26.31;83.82;102378.75;5050992;28;20036;-75
2023/06/24 08:57:47;;;;;;;5.68;3.67;;;;;;;26.42;81.95;102380.50;5036014;28;20039;-76
2023/06/24 09:00:34;;;;;;;5.18;3.40;;;;;;;26.51;82.91;102378.78;5049780;28;20609;-74
2023/06/24 09:03:22;;;;;;;7.22;3.78;;;;;;;26.73;83.21;102376.84;5050389;28;20040;-75
2023/06/24 09:06:07;;;;;;;4.72;3.60;;;;;;;27.00;82.08;102384.34;5049389;28;20036;-74
2023/06/24 09:08:57;;;;;;;5.00;3.33;;;;;;;27.23;80.83;102374.06;5050714;28;20041;-75
2023/06/24 09:11:54;;;;;;;5.07;3.75;;;;;;;27.49;74.79;102367.16;5049768;28;20129;-74
2023/06/24 09:14:40;;;;;;;4.05;3.30;;;;;;;27.58;77.75;102369.03;5049899;28;20044;-75
2023/06/24 09:17:27;;;;;;;6.03;3.50;;;;;;;27.47;74.11;102370.03;5041915;28;20043;-75
2023/06/24 09:20:13;;;;;;;4.45;3.22;;;;;;;27.35;73.87;102371.19;5049211;28;20033;-75
2023/06/24 09:23:01;;;;;;;4.80;3.00;;;;;;;27.26;73.36;102375.63;5048526;28;20036;-75
2023/06/24 09:25:56;;;;;;;4.18;3.50;;;;;;;27.16;71.51;102370.19;5050876;28;20032;-75
2023/06/24 09:28:47;;;;;;;3.92;3.00;;;;;;;27.24;72.91;102375.75;5049502;28;20079;-75
2023/06/24 09:31:33;;;;;;;4.50;3.17;;;;;;;27.35;72.92;102368.47;5048405;28;20032;-74
2023/06/24 09:34:22;;;;;;;5.70;3.30;;;;;;;27.57;73.67;102366.47;5048674;28;20045;-73
2023/06/24 09:37:07;;;;;;;5.68;3.30;;;;;;;27.79;71.22;102365.28;5049177;28;20045;-74
2023/06/24 09:39:54;;;;;;;4.32;3.60;;;;;;;27.89;70.35;102360.66;5050016;28;20044;-74
2023/06/24 09:42:55;;;;;;;5.15;3.22;;;;;;;27.98;64.46;102371.63;5049863;28;20411;-75
2023/06/24 09:45:40;;;;;;;4.03;3.50;;;;;;;27.99;66.74;102368.78;5051727;28;20044;-73
2023/06/24 09:48:26;;;;;;;5.55;3.75;;;;;;;28.00;67.14;102362.31;5052372;28;20114;-74
2023/06/24 09:51:13;;;;;;;4.30;3.33;;;;;;;28.09;66.92;102367.91;5053826;28;20678;-74
2023/06/24 09:53:59;;;;;;;5.93;4.00;;;;;;;28.12;66.53;102359.41;5052279;28;20048;-76
2023/06/24 09:56:47;;;;;;;5.68;3.60;;;;;;;28.20;66.27;102354.06;5051878;28;20178;-75
2023/06/24 09:59:34;;;;;;;8.50;3.50;;;;;;;28.26;65.64;102358.13;5053195;28;20039;-73
2023/06/24 10:02:20;;;;;;;3.95;3.20;;;;;;;28.33;66.24;102359.22;5054247;28;20036;-76
2023/06/24 10:05:06;;;;;;;4.38;3.40;;;;;;;28.46;65.18;102367.88;5053104;28;20048;-73
2023/06/24 10:07:52;;;;;;;4.03;3.20;;;;;;;28.55;65.17;102367.97;5050802;28;22107;-75
2023/06/24 10:10:37;;;;;;;5.75;3.58;;;;;;;28.45;62.79;102373.47;5052185;28;20040;-75
2023/06/24 10:13:23;;;;;;;4.82;3.33;;;;;;;28.24;62.28;102374.59;5053543;28;20075;-74
2023/06/24 10:16:09;;;;;;;5.90;3.65;;;;;;;28.10;61.99;102372.31;5050609;28;20044;-75
2023/06/24 10:19:02;;;;;;;4.47;3.35;;;;;;;27.90;60.71;102373.22;5052666;28;20039;-73
2023/06/24 10:21:53;;;;;;;4.30;2.97;;;;;;;27.83;61.29;102374.00;5052652;28;20119;-73
2023/06/24 10:24:44;;;;;;;3.20;2.80;;;;;;;27.72;63.15;102362.28;5051748;28;20064;-75
2023/06/24 10:27:33;;;;;;;3.53;2.38;;;;;;;27.67;62.56;102361.84;5037099;28;20441;-73
2023/06/24 10:30:21;;;;;;;4.10;3.05;;;;;;;27.81;62.11;102356.94;5051672;28;20074;-75
2023/06/24 10:33:10;;;;;;;4.40;3.40;;;;;;;27.95;61.79;102353.78;5032901;28;22098;-74
2023/06/24 10:35:56;;;;;;;3.78;3.33;;;;;;;28.04;62.68;102350.16;5070992;28;20044;-74
2023/06/24 10:38:44;;;;;;;6.15;3.60;;;;;;;28.09;62.66;102362.47;5072934;28;20498;-74
2023/06/24 10:41:31;;;;;;;4.25;3.47;;;;;;;27.92;61.69;102362.22;5057074;28;20043;-74
2023/06/24 10:44:17;;;;;;;5.32;3.55;;;;;;;27.87;62.78;102353.63;5073067;28;20062;-72
2023/06/24 10:47:03;;;;;;;4.20;3.80;;;;;;;27.91;63.01;102350.50;5056875;28;20047;-75
2023/06/24 10:49:50;;;;;;;6.90;3.75;;;;;;;27.86;62.10;102351.91;5071625;28;20039;-75
2023/06/24 10:52:40;;;;;;;7.15;3.55;;;;;;;27.63;61.45;102358.56;5055441;28;20028;-74
2023/06/24 10:55:26;;;;;;;5.40;3.05;;;;;;;27.65;61.94;102355.72;5050668;28;20036;-74
2023/06/24 10:58:15;;;;;;;5.25;3.15;;;;;;;27.69;61.08;102354.41;5072083;28;20391;-74
2023/06/24 11:01:08;;;;;;;4.10;2.95;;;;;;;27.66;59.30;102349.25;5055422;28;20036;-74
2023/06/24 11:03:54;;;;;;;3.50;2.78;;;;;;;27.67;58.86;102341.97;5072505;28;20039;-75
2023/06/24 11:06:39;;;;;;;5.45;3.25;;;;;;;27.73;58.30;102355.81;5055571;28;20981;-75
2023/06/24 11:09:26;;;;;;;3.97;2.90;;;;;;;27.81;58.56;102348.78;5055919;28;20447;-75
2023/06/24 11:12:11;;;;;;;4.70;3.03;;;;;;;28.01;59.46;102355.03;5074059;28;20070;-76
2023/06/24 11:15:03;;;;;;;5.88;3.75;;;;;;;28.22;59.67;102341.22;5071817;28;20141;-75
2023/06/24 11:17:53;;;;;;;4.30;3.10;;;;;;;28.26;58.28;102337.16;5069953;28;20032;-75
2023/06/24 11:20:39;;;;;;;6.03;3.40;;;;;;;28.19;58.70;102353.22;5072671;28;20130;-75
2023/06/24 11:23:25;;;;;;;7.05;4.03;;;;;;;28.13;58.48;102353.84;5072024;28;20603;-75
2023/06/24 11:26:11;;;;;;;5.82;3.95;;;;;;;28.14;60.24;102344.66;5056938;28;20118;-75
2023/06/24 11:28:57;;;;;;;4.40;3.50;;;;;;;28.20;59.90;102351.34;5071842;28;20040;-73
2023/06/24 11:31:45;;;;;;;4.78;3.08;;;;;;;28.17;58.50;102343.50;5050003;28;20053;-75
2023/06/24 11:34:31;;;;;;;3.47;2.30;;;;;;;28.12;58.62;102343.09;5072456;28;20059;-74
2023/06/24 11:37:18;;;;;;;4.82;2.78;;;;;;;28.23;59.35;102347.50;5071119;28;20048;-74
2023/06/24 11:40:06;;;;;;;2.90;2.13;;;;;;;28.27;58.91;102338.88;5071805;28;20039;-74
2023/06/24 11:42:51;;;;;;;2.22;2.03;;;;;;;28.26;57.99;102345.34;5057193;28;20046;-74
2023/06/24 11:45:37;;;;;;;2.53;2.13;;;;;;;28.05;57.03;102332.81;5070931;28;20466;-74
2023/06/24 11:48:27;;;;;;;2.85;2.35;;;;;;;27.95;57.06;102339.28;5071354;28;20043;-74
2023/06/24 11:51:14;;;;;;;4.15;2.25;;;;;;;27.81;57.14;102332.47;5070779;28;20130;-74
2023/06/24 11:54:04;;;;;;;2.83;1.98;;;;;;;27.75;57.46;102339.34;5055774;28;20486;-74
2023/06/24 11:56:54;;;;;;;3.08;2.20;;;;;;;27.79;59.01;102325.31;5070449;28;20144;-75
2023/06/24 11:59:39;;;;;;;4.20;2.17;;;;;;;27.99;59.58;102336.13;5070872;28;20486;-74
2023/06/24 12:02:29;;;;;;;3.45;2.72;;;;;;;28.22;58.56;102341.22;5070130;28;20036;-75
2023/06/24 12:05:25;;;;;;;4.15;3.05;;;;;;;28.23;57.88;102326.59;5069430;28;20052;-74
2023/06/24 12:08:12;;;;;;;6.63;4.20;;;;;;;28.18;58.46;102324.31;5070979;28;20096;-73
2023/06/24 12:10:58;;;;;;;4.47;3.45;;;;;;;28.13;59.66;102331.19;5054503;28;20215;-75
2023/06/24 12:13:44;;;;;;;4.10;3.20;;;;;;;28.06;59.76;102331.78;5070093;28;20150;-75
2023/06/24 12:16:30;;;;;;;6.05;4.18;;;;;;;28.10;59.98;102331.50;5071060;28;20036;-75
2023/06/24 12:19:16;;;;;;;6.35;4.07;;;;;;;28.10;59.87;102337.78;5055152;28;20608;-75
2023/06/24 12:22:02;;;;;;;8.50;4.18;;;;;;;28.11;60.21;102336.78;5070126;28;20127;-74
2023/06/24 12:24:47;;;;;;;6.32;3.47;;;;;;;28.15;60.43;102330.03;5070888;28;20402;-74
2023/06/24 12:27:34;;;;;;;4.60;3.03;;;;;;;28.21;59.48;102323.16;5070220;28;20502;-76
2023/06/24 12:30:22;;;;;;;4.07;3.20;;;;;;;28.22;59.54;102330.34;5069985;28;20499;-75
2023/06/24 12:33:08;;;;;;;4.57;2.58;;;;;;;28.18;58.69;102331.59;5071381;28;20429;-75
2023/06/24 12:35:54;;;;;;;4.28;2.70;;;;;;;28.10;58.82;102336.94;5070595;28;20058;-75
2023/06/24 12:38:40;;;;;;;5.18;2.75;;;;;;;28.10;58.58;102331.50;5068705;28;20051;-73
2023/06/24 12:41:27;;;;;;;3.75;2.50;;;;;;;28.12;58.78;102332.19;5069349;28;20040;-74
2023/06/24 12:44:13;;;;;;;2.20;2.00;;;;;;;28.14;58.25;102330.19;5069843;28;20047;-75
2023/06/24 12:46:59;;;;;;;3.78;1.88;;;;;;;28.19;56.88;102330.59;5070664;28;20050;-74